createdAt,value
2023-02-14T00:00:59.408Z,0.8
2023-02-14T00:02:00.356Z,0.8
2023-02-14T00:03:00.961Z,0.8
2023-02-14T00:04:01.323Z,0.8
2023-02-14T00:05:01.519Z,0.8
2023-02-14T00:06:01.695Z,0.8
2023-02-14T00:07:01.862Z,0.8
2023-02-14T00:08:02.024Z,0.8
2023-02-14T00:09:02.262Z,0.8
2023-02-14T00:10:02.480Z,0.8
2023-02-14T00:11:02.657Z,0.8
2023-02-14T00:12:02.841Z,0.8
2023-02-14T00:13:02.998Z,0.8
2023-02-14T00:14:03.182Z,0.8
2023-02-14T00:15:03.320Z,0.8
2023-02-14T00:16:03.810Z,0.8
2023-02-14T00:17:04.054Z,0.9
2023-02-14T00:18:04.203Z,0.9
2023-02-14T00:19:04.417Z,0.9
2023-02-14T00:20:04.629Z,0.9
2023-02-14T00:21:04.794Z,0.9
2023-02-14T00:22:04.950Z,0.9
2023-02-14T00:23:05.110Z,0.9
2023-02-14T00:24:05.271Z,0.9
2023-02-14T00:25:05.508Z,0.9
2023-02-14T00:26:05.652Z,0.9
2023-02-14T00:27:05.826Z,0.9
2023-02-14T00:28:05.991Z,0.9
2023-02-14T00:29:06.151Z,0.9
2023-02-14T00:30:06.405Z,0.9
2023-02-14T00:31:06.967Z,0.9
2023-02-14T00:32:07.311Z,0.9
2023-02-14T00:33:07.548Z,0.9
2023-02-14T00:34:07.711Z,0.9
2023-02-14T00:35:07.864Z,0.9
2023-02-14T00:36:08.036Z,0.9
2023-02-14T00:37:08.210Z,0.9
2023-02-14T00:38:08.361Z,0.9
2023-02-14T00:39:08.527Z,0.9
2023-02-14T00:40:08.716Z,0.9
2023-02-14T00:41:08.860Z,0.9
2023-02-14T00:42:09.034Z,0.9
2023-02-14T00:43:09.320Z,0.9
2023-02-14T00:44:09.479Z,0.9
2023-02-14T00:45:09.665Z,0.9
2023-02-14T00:46:09.922Z,0.9
2023-02-14T00:47:10.239Z,1
2023-02-14T00:48:10.404Z,1
2023-02-14T00:49:10.688Z,1
2023-02-14T00:50:10.972Z,1
2023-02-14T00:51:11.137Z,1
2023-02-14T00:52:11.291Z,1
2023-02-14T00:53:11.440Z,1
2023-02-14T00:54:11.646Z,1
2023-02-14T00:55:11.805Z,1
2023-02-14T00:56:11.987Z,1
2023-02-14T00:57:12.159Z,1.1
2023-02-14T00:58:12.322Z,1.1
2023-02-14T00:59:12.486Z,1.1
2023-02-14T01:00:12.648Z,1.1
2023-02-14T01:01:13.042Z,1.1
2023-02-14T01:02:13.521Z,1.1
2023-02-14T01:03:13.758Z,1.1
2023-02-14T01:04:13.911Z,1.1
2023-02-14T01:05:14.075Z,1.1
2023-02-14T01:06:14.251Z,1.1
2023-02-14T01:07:14.413Z,1.1
2023-02-14T01:08:14.589Z,1.1
2023-02-14T01:09:14.740Z,1.1
2023-02-14T01:10:14.910Z,1.1
2023-02-14T01:11:15.092Z,1.1
2023-02-14T01:12:15.270Z,1.1
2023-02-14T01:13:15.478Z,1.1
2023-02-14T01:14:15.647Z,1.1
2023-02-14T01:15:15.806Z,1.1
2023-02-14T01:16:16.095Z,1.1
2023-02-14T01:17:16.271Z,1.1
2023-02-14T01:18:16.423Z,1.1
2023-02-14T01:19:16.621Z,1.1
2023-02-14T01:20:16.800Z,1.1
2023-02-14T01:21:16.958Z,1.1
2023-02-14T01:22:17.145Z,1.1
2023-02-14T01:23:17.282Z,1.1
2023-02-14T01:24:17.419Z,1.1
2023-02-14T01:25:17.568Z,1.1
2023-02-14T01:26:17.719Z,1.1
2023-02-14T01:27:17.883Z,1.1
2023-02-14T01:28:18.039Z,1.1
2023-02-14T01:29:18.192Z,1.1
2023-02-14T01:30:18.529Z,1.1
2023-02-14T01:31:19.031Z,1.1
2023-02-14T01:32:19.660Z,1.1
2023-02-14T01:33:20.304Z,1.1
2023-02-14T01:34:20.475Z,1.1
2023-02-14T01:35:20.656Z,1.1
2023-02-14T01:36:20.802Z,1.1
2023-02-14T01:37:20.955Z,1.1
2023-02-14T01:38:21.110Z,1.1
2023-02-14T01:39:21.262Z,1.1
2023-02-14T01:40:21.416Z,1.1
2023-02-14T01:41:21.582Z,1.1
2023-02-14T01:42:21.763Z,1.1
2023-02-14T01:43:21.924Z,1.1
2023-02-14T01:44:22.096Z,1.1
2023-02-14T01:45:22.273Z,1.1
2023-02-14T01:46:22.454Z,1.1
2023-02-14T01:47:22.610Z,1.1
2023-02-14T01:48:22.761Z,1.1
2023-02-14T01:49:22.953Z,1.1
2023-02-14T01:50:23.150Z,1.1
2023-02-14T01:51:23.317Z,1.1
2023-02-14T01:52:23.472Z,1.1
2023-02-14T01:53:23.644Z,1.1
2023-02-14T01:54:23.805Z,1.1
2023-02-14T01:55:23.980Z,1.1
2023-02-14T01:56:24.145Z,1.1
2023-02-14T01:57:24.297Z,1.1
2023-02-14T01:58:24.441Z,1.1
2023-02-14T01:59:24.611Z,1.1
2023-02-14T02:00:24.767Z,1.1
2023-02-14T02:01:25.045Z,1.1
2023-02-14T02:02:25.514Z,1.1
2023-02-14T02:03:25.822Z,1.1
2023-02-14T02:04:25.991Z,1.1
2023-02-14T02:05:26.210Z,1.1
2023-02-14T02:06:26.366Z,1.2
2023-02-14T02:07:26.559Z,1.2
2023-02-14T02:08:26.719Z,1.2
2023-02-14T02:09:26.895Z,1.2
2023-02-14T02:10:27.053Z,1.2
2023-02-14T02:11:27.206Z,1.2
2023-02-14T02:12:31.021Z,1.2
2023-02-14T02:13:31.281Z,1.1
2023-02-14T02:14:31.432Z,1.1
2023-02-14T02:15:31.581Z,1.1
2023-02-14T02:16:31.837Z,1.1
2023-02-14T02:17:32.095Z,1.1
2023-02-14T02:18:32.257Z,1.1
2023-02-14T02:19:32.427Z,1.1
2023-02-14T02:20:32.629Z,1.1
2023-02-14T02:21:32.807Z,1.1
2023-02-14T02:22:32.975Z,1.1
2023-02-14T02:23:33.373Z,1.1
2023-02-14T02:24:33.559Z,1.1
2023-02-14T02:25:33.706Z,1.1
2023-02-14T02:26:33.880Z,1
2023-02-14T02:27:34.063Z,1
2023-02-14T02:28:34.213Z,1
2023-02-14T02:29:34.408Z,1
2023-02-14T02:30:35.010Z,1
2023-02-14T02:31:35.759Z,1
2023-02-14T02:32:36.204Z,1
2023-02-14T02:33:36.360Z,1
2023-02-14T02:34:36.518Z,1
2023-02-14T02:35:36.680Z,1
2023-02-14T02:36:36.837Z,0.9
2023-02-14T02:37:37.000Z,0.9
2023-02-14T02:38:37.156Z,0.9
2023-02-14T02:39:37.303Z,0.9
2023-02-14T02:40:37.459Z,0.9
2023-02-14T02:41:37.627Z,0.9
2023-02-14T02:42:37.782Z,0.9
2023-02-14T02:43:37.923Z,0.9
2023-02-14T02:44:38.080Z,0.9
2023-02-14T02:45:38.258Z,0.9
2023-02-14T02:46:38.406Z,0.9
2023-02-14T02:47:38.563Z,0.9
2023-02-14T02:48:38.728Z,0.9
2023-02-14T02:49:38.878Z,0.9
2023-02-14T02:50:39.070Z,0.9
2023-02-14T02:51:39.220Z,0.9
2023-02-14T02:52:39.383Z,0.9
2023-02-14T02:53:39.606Z,0.9
2023-02-14T02:54:39.766Z,0.9
2023-02-14T02:55:39.951Z,0.9
2023-02-14T02:56:40.109Z,0.8
2023-02-14T02:57:40.269Z,0.8
2023-02-14T02:58:40.423Z,0.8
2023-02-14T02:59:40.587Z,0.8
2023-02-14T03:00:40.746Z,0.8
2023-02-14T03:01:40.966Z,0.8
2023-02-14T03:02:41.183Z,0.8
2023-02-14T03:03:41.336Z,0.8
2023-02-14T03:04:41.642Z,0.8
2023-02-14T03:05:41.863Z,0.8
2023-02-14T03:06:42.029Z,0.8
2023-02-14T03:07:42.184Z,0.8
2023-02-14T03:08:42.353Z,0.8
2023-02-14T03:09:42.518Z,0.8
2023-02-14T03:10:42.672Z,0.8
2023-02-14T03:11:42.829Z,0.8
2023-02-14T03:12:42.999Z,0.8
2023-02-14T03:13:43.159Z,0.8
2023-02-14T03:14:43.308Z,0.8
2023-02-14T03:15:43.571Z,0.8
2023-02-14T03:16:43.848Z,0.7
2023-02-14T03:17:44.003Z,0.7
2023-02-14T03:18:44.174Z,0.7
2023-02-14T03:19:44.330Z,0.7
2023-02-14T03:20:44.482Z,0.7
2023-02-14T03:21:44.644Z,0.7
2023-02-14T03:22:44.803Z,0.7
2023-02-14T03:23:44.946Z,0.7
2023-02-14T03:24:45.176Z,0.7
2023-02-14T03:25:45.336Z,0.7
2023-02-14T03:26:45.493Z,0.6
2023-02-14T03:27:45.636Z,0.6
2023-02-14T03:28:45.791Z,0.6
2023-02-14T03:29:45.949Z,0.6
2023-02-14T03:30:46.345Z,0.6
2023-02-14T03:31:46.980Z,0.6
2023-02-14T03:32:47.388Z,0.6
2023-02-14T03:33:47.541Z,0.6
2023-02-14T03:34:47.692Z,0.6
2023-02-14T03:35:47.856Z,0.6
2023-02-14T03:36:48.007Z,0.5
2023-02-14T03:37:48.162Z,0.5
2023-02-14T03:38:48.312Z,0.5
2023-02-14T03:39:48.459Z,0.5
2023-02-14T03:40:48.618Z,0.5
2023-02-14T03:41:48.766Z,0.5
2023-02-14T03:42:48.942Z,0.5
2023-02-14T03:43:49.115Z,0.5
2023-02-14T03:44:49.384Z,0.5
2023-02-14T03:45:49.709Z,0.5
2023-02-14T03:46:49.870Z,0.5
2023-02-14T03:47:50.020Z,0.5
2023-02-14T03:48:50.164Z,0.5
2023-02-14T03:49:50.319Z,0.5
2023-02-14T03:50:50.472Z,0.5
2023-02-14T03:51:50.621Z,0.5
2023-02-14T03:52:50.799Z,0.5
2023-02-14T03:53:50.967Z,0.5
2023-02-14T03:54:51.129Z,0.5
2023-02-14T03:55:51.299Z,0.5
2023-02-14T03:56:51.565Z,0.5
2023-02-14T03:57:51.718Z,0.5
2023-02-14T03:58:51.875Z,0.5
2023-02-14T03:59:52.035Z,0.5
2023-02-14T04:00:52.201Z,0.5
2023-02-14T04:01:52.477Z,0.5
2023-02-14T04:02:52.715Z,0.5
2023-02-14T04:03:54.172Z,0.5
2023-02-14T04:04:54.525Z,0.5
2023-02-14T04:05:54.684Z,0.5
2023-02-14T04:06:54.851Z,0.5
2023-02-14T04:07:55.055Z,0.5
2023-02-14T04:08:55.208Z,0.5
2023-02-14T04:09:55.371Z,0.5
2023-02-14T04:10:55.534Z,0.5
2023-02-14T04:11:55.700Z,0.5
2023-02-14T04:12:55.878Z,0.5
2023-02-14T04:13:56.030Z,0.5
2023-02-14T04:14:56.186Z,0.5
2023-02-14T04:15:56.440Z,0.5
2023-02-14T04:16:56.714Z,0.5
2023-02-14T04:17:56.875Z,0.5
2023-02-14T04:18:57.031Z,0.5
2023-02-14T04:19:57.187Z,0.5
2023-02-14T04:20:57.894Z,0.5
2023-02-14T04:21:58.633Z,0.5
2023-02-14T04:22:58.798Z,0.5
2023-02-14T04:23:58.966Z,0.5
2023-02-14T04:24:59.127Z,0.5
2023-02-14T04:25:59.319Z,0.5
2023-02-14T04:26:59.468Z,0.6
2023-02-14T04:27:59.629Z,0.6
2023-02-14T04:28:59.785Z,0.6
2023-02-14T04:30:00.038Z,0.6
2023-02-14T04:31:01.662Z,0.6
2023-02-14T04:32:03.147Z,0.6
2023-02-14T04:33:03.500Z,0.6
2023-02-14T04:34:03.664Z,0.6
2023-02-14T04:35:03.835Z,0.6
2023-02-14T04:36:03.988Z,0.6
2023-02-14T04:37:04.169Z,0.6
2023-02-14T04:38:04.318Z,0.6
2023-02-14T04:39:04.470Z,0.6
2023-02-14T04:40:04.624Z,0.6
2023-02-14T04:41:04.924Z,0.6
2023-02-14T04:42:05.069Z,0.6
2023-02-14T04:43:05.224Z,0.6
2023-02-14T04:44:05.375Z,0.6
2023-02-14T04:45:05.538Z,0.6
2023-02-14T04:46:05.697Z,0.6
2023-02-14T04:47:05.853Z,0.6
2023-02-14T04:48:06.005Z,0.6
2023-02-14T04:49:06.174Z,0.6
2023-02-14T04:50:06.328Z,0.6
2023-02-14T04:51:06.491Z,0.6
2023-02-14T04:52:06.679Z,0.6
2023-02-14T04:53:06.830Z,0.6
2023-02-14T04:54:07.004Z,0.6
2023-02-14T04:55:07.171Z,0.6
2023-02-14T04:56:07.321Z,0.6
2023-02-14T04:57:07.482Z,0.6
2023-02-14T04:58:07.709Z,0.6
2023-02-14T04:59:07.868Z,0.6
2023-02-14T05:00:08.029Z,0.6
2023-02-14T05:01:08.354Z,0.6
2023-02-14T05:02:08.719Z,0.6
2023-02-14T05:03:09.025Z,0.6
2023-02-14T05:04:09.214Z,0.6
2023-02-14T05:05:09.381Z,0.6
2023-02-14T05:06:09.531Z,0.6
2023-02-14T05:07:09.691Z,0.7
2023-02-14T05:08:09.840Z,0.7
2023-02-14T05:09:10.001Z,0.7
2023-02-14T05:10:10.209Z,0.7
2023-02-14T05:11:10.374Z,0.7
2023-02-14T05:12:10.560Z,0.7
2023-02-14T05:13:10.706Z,0.7
2023-02-14T05:14:10.877Z,0.7
2023-02-14T05:15:11.037Z,0.7
2023-02-14T05:16:11.280Z,0.7
2023-02-14T05:17:11.572Z,0.6
2023-02-14T05:18:11.728Z,0.6
2023-02-14T05:19:11.870Z,0.6
2023-02-14T05:20:12.024Z,0.6
2023-02-14T05:21:12.180Z,0.6
2023-02-14T05:22:12.360Z,0.6
2023-02-14T05:23:12.518Z,0.6
2023-02-14T05:24:12.689Z,0.6
2023-02-14T05:25:12.851Z,0.6
2023-02-14T05:26:13.232Z,0.6
2023-02-14T05:27:13.390Z,0.6
2023-02-14T05:28:13.548Z,0.6
2023-02-14T05:29:13.698Z,0.6
2023-02-14T05:30:13.964Z,0.6
2023-02-14T05:31:14.494Z,0.6
2023-02-14T05:32:15.122Z,0.6
2023-02-14T05:33:15.348Z,0.6
2023-02-14T05:34:15.516Z,0.6
2023-02-14T05:35:15.676Z,0.6
2023-02-14T05:36:15.834Z,0.6
2023-02-14T05:37:15.988Z,0.6
2023-02-14T05:38:16.136Z,0.6
2023-02-14T05:39:16.298Z,0.6
2023-02-14T05:40:16.589Z,0.6
2023-02-14T05:41:17.001Z,0.6
2023-02-14T05:42:17.254Z,0.6
2023-02-14T05:43:17.401Z,0.6
2023-02-14T05:44:17.568Z,0.6
2023-02-14T05:45:17.703Z,0.6
2023-02-14T05:46:17.838Z,0.6
2023-02-14T05:47:18.023Z,0.6
2023-02-14T05:48:18.235Z,0.6
2023-02-14T05:49:18.359Z,0.6
2023-02-14T05:50:18.489Z,0.6
2023-02-14T05:51:18.624Z,0.6
2023-02-14T05:52:18.766Z,0.6
2023-02-14T05:53:18.917Z,0.6
2023-02-14T05:54:19.083Z,0.6
2023-02-14T05:55:19.221Z,0.6
2023-02-14T05:56:19.360Z,0.7
2023-02-14T05:57:19.515Z,0.7
2023-02-14T05:58:19.666Z,0.7
2023-02-14T05:59:19.821Z,0.7
2023-02-14T06:00:19.961Z,0.7
2023-02-14T06:01:20.108Z,0.7
2023-02-14T06:02:20.396Z,0.7
2023-02-14T06:03:20.725Z,0.7
2023-02-14T06:04:21.038Z,0.7
2023-02-14T06:05:21.294Z,0.7
2023-02-14T06:06:21.421Z,0.7
2023-02-14T06:07:21.557Z,0.7
2023-02-14T06:08:21.727Z,0.7
2023-02-14T06:09:21.888Z,0.7
2023-02-14T06:10:22.024Z,0.7
2023-02-14T06:11:22.168Z,0.7
2023-02-14T06:12:22.313Z,0.7
2023-02-14T06:13:22.459Z,0.7
2023-02-14T06:14:22.585Z,0.7
2023-02-14T06:15:22.720Z,0.7
2023-02-14T06:16:22.980Z,0.7
2023-02-14T06:17:23.186Z,0.7
2023-02-14T06:18:23.313Z,0.7
2023-02-14T06:19:23.435Z,0.7
2023-02-14T06:20:23.584Z,0.7
2023-02-14T06:21:23.740Z,0.7
2023-02-14T06:22:23.891Z,0.7
2023-02-14T06:23:24.028Z,0.7
2023-02-14T06:24:24.174Z,0.7
2023-02-14T06:25:24.379Z,0.7
2023-02-14T06:26:24.520Z,0.7
2023-02-14T06:27:24.650Z,0.7
2023-02-14T06:28:24.793Z,0.7
2023-02-14T06:29:24.925Z,0.7
2023-02-14T06:30:25.489Z,0.7
2023-02-14T06:31:26.363Z,0.7
2023-02-14T06:32:26.737Z,0.7
2023-02-14T06:33:26.900Z,0.7
2023-02-14T06:34:27.032Z,0.7
2023-02-14T06:35:27.166Z,0.7
2023-02-14T06:36:27.313Z,0.8
2023-02-14T06:37:27.438Z,0.8
2023-02-14T06:38:27.574Z,0.8
2023-02-14T06:39:27.712Z,0.8
2023-02-14T06:40:27.862Z,0.8
2023-02-14T06:41:27.991Z,0.8
2023-02-14T06:42:28.140Z,0.8
2023-02-14T06:43:28.291Z,0.8
2023-02-14T06:44:28.434Z,0.8
2023-02-14T06:45:28.583Z,0.8
2023-02-14T06:46:28.839Z,0.8
2023-02-14T06:47:29.045Z,0.8
2023-02-14T06:48:29.174Z,0.8
2023-02-14T06:49:29.311Z,0.8
2023-02-14T06:50:29.461Z,0.8
2023-02-14T06:51:29.605Z,0.8
2023-02-14T06:52:29.741Z,0.8
2023-02-14T06:53:29.872Z,0.8
2023-02-14T06:54:30.042Z,0.8
2023-02-14T06:55:30.168Z,0.8
2023-02-14T06:56:30.300Z,0.9
2023-02-14T06:57:30.448Z,0.9
2023-02-14T06:58:30.638Z,0.9
2023-02-14T06:59:30.776Z,0.9
2023-02-14T07:00:31.045Z,0.9
2023-02-14T07:01:31.301Z,0.9
2023-02-14T07:02:31.707Z,0.9
2023-02-14T07:03:32.033Z,0.9
2023-02-14T07:04:32.163Z,0.9
2023-02-14T07:05:32.311Z,0.9
2023-02-14T07:06:32.472Z,0.8
2023-02-14T07:07:32.627Z,0.8
2023-02-14T07:08:32.754Z,0.8
2023-02-14T07:09:32.883Z,0.8
2023-02-14T07:10:33.014Z,0.8
2023-02-14T07:11:33.156Z,0.8
2023-02-14T07:12:33.290Z,0.8
2023-02-14T07:13:33.530Z,0.8
2023-02-14T07:14:33.841Z,0.8
2023-02-14T07:15:34.185Z,0.8
2023-02-14T07:16:34.365Z,0.6
2023-02-14T07:17:34.510Z,0.6
2023-02-14T07:18:34.664Z,0.6
2023-02-14T07:19:34.802Z,0.6
2023-02-14T07:20:34.951Z,0.6
2023-02-14T07:21:35.085Z,0.6
2023-02-14T07:22:35.230Z,0.6
2023-02-14T07:23:35.372Z,0.6
2023-02-14T07:24:35.516Z,0.6
2023-02-14T07:25:35.702Z,0.6
2023-02-14T07:26:35.853Z,0.6
2023-02-14T07:27:35.989Z,0.6
2023-02-14T07:28:36.131Z,0.6
2023-02-14T07:29:36.290Z,0.6
2023-02-14T07:30:36.427Z,0.6
2023-02-14T07:31:36.863Z,0.6
2023-02-14T07:32:37.331Z,0.6
2023-02-14T07:33:37.463Z,0.6
2023-02-14T07:34:37.609Z,0.6
2023-02-14T07:35:37.735Z,0.6
2023-02-14T07:36:37.908Z,0.6
2023-02-14T07:37:38.034Z,0.6
2023-02-14T07:38:38.162Z,0.6
2023-02-14T07:39:38.300Z,0.6
2023-02-14T07:40:38.464Z,0.6
2023-02-14T07:41:38.662Z,0.6
2023-02-14T07:42:38.805Z,0.6
2023-02-14T07:43:38.967Z,0.6
2023-02-14T07:44:39.114Z,0.6
2023-02-14T07:45:39.342Z,0.6
2023-02-14T07:46:39.849Z,0.6
2023-02-14T07:47:40.259Z,0.6
2023-02-14T07:48:40.397Z,0.6
2023-02-14T07:49:40.545Z,0.6
2023-02-14T07:50:40.671Z,0.6
2023-02-14T07:51:40.861Z,0.6
2023-02-14T07:52:41.065Z,0.6
2023-02-14T07:53:41.236Z,0.6
2023-02-14T07:54:41.375Z,0.6
2023-02-14T07:55:41.583Z,0.6
2023-02-14T07:56:41.821Z,0.6
2023-02-14T07:57:41.982Z,0.6
2023-02-14T07:58:42.171Z,0.6
2023-02-14T07:59:42.326Z,0.6
2023-02-14T08:00:42.472Z,0.6
2023-02-14T08:01:42.769Z,0.6
2023-02-14T08:02:43.051Z,0.6
2023-02-14T08:03:43.178Z,0.6
2023-02-14T08:04:43.501Z,0.6
2023-02-14T08:05:43.676Z,0.6
2023-02-14T08:06:43.936Z,0.6
2023-02-14T08:07:44.174Z,0.6
2023-02-14T08:08:44.339Z,0.6
2023-02-14T08:09:44.475Z,0.6
2023-02-14T08:10:44.622Z,0.6
2023-02-14T08:11:44.754Z,0.6
2023-02-14T08:12:44.916Z,0.6
2023-02-14T08:13:45.425Z,0.6
2023-02-14T08:14:45.772Z,0.6
2023-02-14T08:15:45.956Z,0.6
2023-02-14T08:16:46.143Z,0.7
2023-02-14T08:17:46.277Z,0.7
2023-02-14T08:18:46.422Z,0.7
2023-02-14T08:19:46.552Z,0.7
2023-02-14T08:20:46.714Z,0.7
2023-02-14T08:21:46.876Z,0.7
2023-02-14T08:22:47.017Z,0.7
2023-02-14T08:23:47.740Z,0.7
2023-02-14T08:24:47.887Z,0.7
2023-02-14T08:25:48.043Z,0.7
2023-02-14T08:26:48.167Z,0.8
2023-02-14T08:27:48.294Z,0.8
2023-02-14T08:28:48.419Z,0.8
2023-02-14T08:29:48.617Z,0.8
2023-02-14T08:30:48.826Z,0.8
2023-02-14T08:31:49.169Z,0.8
2023-02-14T08:32:49.731Z,0.8
2023-02-14T08:33:50.299Z,0.8
2023-02-14T08:34:51.032Z,0.8
2023-02-14T08:35:51.183Z,0.8
2023-02-14T08:36:51.346Z,0.8
2023-02-14T08:37:51.496Z,0.8
2023-02-14T08:38:51.634Z,0.8
2023-02-14T08:39:51.871Z,0.8
2023-02-14T08:40:52.017Z,0.8
2023-02-14T08:41:52.158Z,0.8
2023-02-14T08:42:52.321Z,0.8
2023-02-14T08:43:52.539Z,0.8
2023-02-14T08:44:52.711Z,0.8
2023-02-14T08:45:52.887Z,0.8
2023-02-14T08:46:53.217Z,0.9
2023-02-14T08:47:53.549Z,0.9
2023-02-14T08:48:53.698Z,0.9
2023-02-14T08:49:53.907Z,0.9
2023-02-14T08:50:54.048Z,0.9
2023-02-14T08:51:54.233Z,0.9
2023-02-14T08:52:54.380Z,0.9
2023-02-14T08:53:54.532Z,0.9
2023-02-14T08:54:54.660Z,0.9
2023-02-14T08:55:54.796Z,0.9
2023-02-14T08:56:54.997Z,1.1
2023-02-14T08:57:55.169Z,1.1
2023-02-14T08:58:55.327Z,1.1
2023-02-14T08:59:55.472Z,1.1
2023-02-14T09:00:55.828Z,1.1
2023-02-14T09:01:56.118Z,1.1
2023-02-14T09:02:56.261Z,1.1
2023-02-14T09:03:56.483Z,1.1
2023-02-14T09:04:56.719Z,1.1
2023-02-14T09:05:56.879Z,1.1
2023-02-14T09:06:57.109Z,1.2
2023-02-14T09:07:57.525Z,1.2
2023-02-14T09:08:57.688Z,1.2
2023-02-14T09:09:57.849Z,1.2
2023-02-14T09:10:59.082Z,1.2
2023-02-14T09:11:59.697Z,1.2
2023-02-14T09:12:59.876Z,1.2
2023-02-14T09:14:00.020Z,1.2
2023-02-14T09:15:00.221Z,1.2
2023-02-14T09:16:00.590Z,1.2
2023-02-14T09:17:01.045Z,1.4
2023-02-14T09:18:01.271Z,1.4
2023-02-14T09:19:01.453Z,1.4
2023-02-14T09:20:01.696Z,1.4
2023-02-14T09:21:02.578Z,1.4
2023-02-14T09:22:03.152Z,1.4
2023-02-14T09:23:03.287Z,1.4
2023-02-14T09:24:03.417Z,1.4
2023-02-14T09:25:03.577Z,1.4
2023-02-14T09:26:03.785Z,1.4
2023-02-14T09:27:03.938Z,1.5
2023-02-14T09:28:04.092Z,1.5
2023-02-14T09:29:04.241Z,1.5
2023-02-14T09:30:04.456Z,1.5
2023-02-14T09:31:04.706Z,1.5
2023-02-14T09:32:05.338Z,1.5
2023-02-14T09:33:05.779Z,1.5
2023-02-14T09:34:05.912Z,1.5
2023-02-14T09:35:06.064Z,1.5
2023-02-14T09:36:06.200Z,1.5
2023-02-14T09:37:06.598Z,1.6
2023-02-14T09:38:06.727Z,1.6
2023-02-14T09:39:06.865Z,1.6
2023-02-14T09:40:06.998Z,1.6
2023-02-14T09:41:07.128Z,1.6
2023-02-14T09:42:07.274Z,1.6
2023-02-14T09:43:07.409Z,1.6
2023-02-14T09:44:07.584Z,1.6
2023-02-14T09:45:07.746Z,1.6
2023-02-14T09:46:08.077Z,1.6
2023-02-14T09:47:08.342Z,1.8
2023-02-14T09:48:08.483Z,1.8
2023-02-14T09:49:08.728Z,1.8
2023-02-14T09:50:09.146Z,1.8
2023-02-14T09:51:09.368Z,1.8
2023-02-14T09:52:09.786Z,1.8
2023-02-14T09:53:10.902Z,1.8
2023-02-14T09:54:11.048Z,1.8
2023-02-14T09:55:11.213Z,1.8
2023-02-14T09:56:11.871Z,1.9
2023-02-14T09:57:12.969Z,1.9
2023-02-14T09:58:13.098Z,1.9
2023-02-14T09:59:13.233Z,1.9
2023-02-14T10:00:13.380Z,1.9
2023-02-14T10:01:13.704Z,1.9
2023-02-14T10:02:13.971Z,1.9
2023-02-14T10:03:14.212Z,1.9
2023-02-14T10:04:15.317Z,1.9
2023-02-14T10:05:15.464Z,1.9
2023-02-14T10:06:15.621Z,2.09
2023-02-14T10:07:15.766Z,2.09
2023-02-14T10:08:15.908Z,2.09
2023-02-14T10:09:16.042Z,2.09
2023-02-14T10:10:16.168Z,2.09
2023-02-14T10:11:16.314Z,2.09
2023-02-14T10:12:16.462Z,2.09
2023-02-14T10:13:16.606Z,2.09
2023-02-14T10:14:16.745Z,2.09
2023-02-14T10:15:16.894Z,2.09
2023-02-14T10:16:17.151Z,2.4
2023-02-14T10:17:17.301Z,2.4
2023-02-14T10:18:17.585Z,2.4
2023-02-14T10:19:17.749Z,2.4
2023-02-14T10:20:17.906Z,2.4
2023-02-14T10:21:18.040Z,2.4
2023-02-14T10:22:18.167Z,2.4
2023-02-14T10:23:18.297Z,2.4
2023-02-14T10:24:18.428Z,2.4
2023-02-14T10:25:18.558Z,2.4
2023-02-14T10:26:18.688Z,2.7
2023-02-14T10:31:13.079Z,2.7
2023-02-14T10:32:13.487Z,2.9
2023-02-14T10:33:13.692Z,2.9
2023-02-14T10:34:13.843Z,2.9
2023-02-14T10:35:14.012Z,2.9
2023-02-14T10:36:14.168Z,3
2023-02-14T10:37:14.309Z,3
2023-02-14T10:38:14.448Z,3
2023-02-14T10:39:14.573Z,3
2023-02-14T10:40:17.544Z,3
2023-02-14T10:41:17.782Z,3
2023-02-14T10:42:18.137Z,3
2023-02-14T10:43:18.284Z,3
2023-02-14T10:44:18.420Z,3
2023-02-14T10:45:18.569Z,3
2023-02-14T10:46:18.797Z,3.2
2023-02-14T10:47:18.992Z,3.2
2023-02-14T10:48:19.118Z,3.2
2023-02-14T10:49:19.249Z,3.2
2023-02-14T10:50:19.395Z,3.2
2023-02-14T10:51:19.535Z,3.2
2023-02-14T10:52:19.665Z,3.2
2023-02-14T10:53:19.803Z,3.2
2023-02-14T10:54:19.954Z,3.2
2023-02-14T10:55:32.965Z,3.2
2023-02-14T10:56:33.211Z,3.4
2023-02-14T10:57:33.356Z,3.4
2023-02-14T10:58:33.518Z,3.4
2023-02-14T10:59:33.697Z,3.4
2023-02-14T11:00:33.877Z,3.4
2023-02-14T11:01:34.140Z,3.4
2023-02-14T11:02:34.340Z,3.4
2023-02-14T11:03:34.559Z,3.4
2023-02-14T11:04:34.804Z,3.4
2023-02-14T11:05:34.944Z,3.4
2023-02-14T11:06:35.129Z,3.7
2023-02-14T11:07:35.334Z,3.7
2023-02-14T11:08:35.505Z,3.7
2023-02-14T11:09:35.681Z,3.7
2023-02-14T11:10:35.871Z,3.7
2023-02-14T11:11:36.025Z,3.7
2023-02-14T11:12:36.166Z,3.7
2023-02-14T11:13:36.317Z,3.7
2023-02-14T11:14:36.476Z,3.7
2023-02-14T11:15:36.646Z,3.7
2023-02-14T11:16:36.870Z,4
2023-02-14T11:17:37.131Z,4
2023-02-14T11:18:37.278Z,4
2023-02-14T11:19:37.653Z,4
2023-02-14T11:20:37.904Z,4
2023-02-14T11:21:38.033Z,4
2023-02-14T11:22:38.162Z,4
2023-02-14T11:23:38.302Z,4
2023-02-14T11:24:38.451Z,4
2023-02-14T11:25:38.610Z,4
2023-02-14T11:26:38.749Z,4.5
2023-02-14T11:27:38.925Z,4.5
2023-02-14T11:28:42.139Z,4.5
2023-02-14T11:29:42.342Z,4.69
2023-02-14T11:30:42.553Z,4.69
2023-02-14T11:31:42.998Z,4.69
2023-02-14T11:32:43.470Z,4.69
2023-02-14T11:33:43.603Z,4.69
2023-02-14T11:34:43.753Z,4.69
2023-02-14T11:35:43.885Z,5.5
2023-02-14T11:36:44.010Z,5.5
2023-02-14T11:37:44.147Z,5.5
2023-02-14T11:38:44.285Z,5.5
2023-02-14T11:39:44.432Z,5.5
2023-02-14T11:40:44.570Z,5.5
2023-02-14T11:41:44.707Z,5.5
2023-02-14T11:42:45.635Z,6.5
2023-02-14T11:43:47.764Z,6.5
2023-02-14T11:44:47.890Z,6.5
2023-02-14T11:45:48.253Z,6.5
2023-02-14T11:46:54.017Z,6.5
2023-02-14T11:47:54.637Z,7.3
2023-02-14T11:48:54.764Z,7.5
2023-02-14T11:49:54.911Z,7.5
2023-02-14T11:50:55.039Z,7.5
2023-02-14T11:51:55.166Z,7.5
2023-02-14T11:52:55.305Z,7.5
2023-02-14T11:53:55.489Z,7.5
2023-02-14T11:54:55.624Z,7.5
2023-02-14T11:55:55.749Z,8.5
2023-02-14T11:56:55.878Z,8.5
2023-02-14T11:57:56.023Z,8.5
2023-02-14T11:58:56.176Z,8.5
2023-02-14T11:59:56.313Z,8.5
2023-02-14T12:00:56.454Z,8.5
2023-02-14T12:01:56.681Z,8.5
2023-02-14T12:02:56.862Z,9.5
2023-02-14T12:03:57.147Z,9.5
2023-02-14T12:04:57.393Z,9.5
2023-02-14T12:05:57.535Z,9.5
2023-02-14T12:06:57.666Z,9.5
2023-02-14T12:07:57.828Z,9.5
2023-02-14T12:08:57.965Z,10.5
2023-02-14T12:10:00.378Z,10.5
2023-02-14T12:11:01.174Z,10.5
2023-02-14T12:12:01.785Z,10.5
2023-02-14T12:13:01.945Z,10.5
2023-02-14T12:14:02.104Z,10.5
2023-02-14T12:15:02.238Z,11.5
2023-02-14T12:16:02.450Z,11.5
2023-02-14T12:17:02.623Z,11.5
2023-02-14T12:18:02.754Z,11.5
2023-02-14T12:19:02.900Z,11.5
2023-02-14T12:20:03.047Z,11.5
2023-02-14T12:21:03.375Z,11.5
2023-02-14T12:22:03.549Z,12.5
2023-02-14T12:23:03.719Z,12.5
2023-02-14T12:24:03.856Z,12.5
2023-02-14T12:25:03.972Z,12.5
2023-02-14T12:26:04.108Z,12.5
2023-02-14T12:27:04.244Z,12.5
2023-02-14T12:28:04.396Z,12.5
2023-02-14T12:29:04.554Z,12.5
2023-02-14T12:30:04.789Z,13.5
2023-02-14T12:31:05.110Z,13.5
2023-02-14T12:32:05.729Z,13.5
2023-02-14T12:33:06.033Z,13.5
2023-02-14T12:34:06.178Z,13.5
2023-02-14T12:35:06.314Z,13.5
2023-02-14T12:36:06.444Z,13.5
2023-02-14T12:37:06.568Z,13.5
2023-02-14T12:38:06.701Z,13.5
2023-02-14T12:39:06.844Z,13.5
2023-02-14T12:40:06.984Z,14.4
2023-02-14T12:41:07.121Z,14.4
2023-02-14T12:42:07.250Z,14.4
2023-02-14T12:43:07.382Z,14.4
2023-02-14T12:44:07.539Z,14.4
2023-02-14T12:45:07.692Z,14.4
2023-02-14T12:46:07.906Z,14.4
2023-02-14T12:47:08.160Z,14.4
2023-02-14T12:48:08.306Z,14.4
2023-02-14T12:49:08.434Z,14.4
2023-02-14T12:50:08.574Z,15.1
2023-02-14T12:51:08.720Z,15.1
2023-02-14T12:52:08.882Z,15.1
2023-02-14T12:53:09.010Z,15.1
2023-02-14T12:54:09.170Z,15.1
2023-02-14T12:55:09.312Z,15.1
2023-02-14T12:56:09.441Z,15.1
2023-02-14T12:57:09.567Z,15.1
2023-02-14T12:58:09.709Z,15.1
2023-02-14T12:59:12.928Z,15.1
2023-02-14T13:00:13.158Z,15.7
2023-02-14T13:01:21.753Z,15.7
2023-02-14T13:02:33.354Z,15.7
2023-02-14T13:03:33.727Z,15.7
2023-02-14T13:04:33.880Z,15.7
2023-02-14T13:05:34.016Z,15.7
2023-02-14T13:06:34.153Z,15.7
2023-02-14T13:07:34.282Z,15.7
2023-02-14T13:08:34.472Z,15.7
2023-02-14T13:09:35.034Z,15.8
2023-02-14T13:10:35.177Z,15.8
2023-02-14T13:11:35.310Z,15.8
2023-02-14T13:12:35.445Z,15.8
2023-02-14T13:13:35.575Z,15.8
2023-02-14T13:14:35.717Z,15.8
2023-02-14T13:15:35.848Z,15.8
2023-02-14T13:16:36.158Z,15.8
2023-02-14T13:17:36.451Z,15.8
2023-02-14T13:18:36.613Z,15.8
2023-02-14T13:19:36.783Z,16.4
2023-02-14T13:20:36.923Z,16.4
2023-02-14T13:21:37.072Z,16.4
2023-02-14T13:22:37.421Z,16.4
2023-02-14T13:23:37.577Z,16.4
2023-02-14T13:24:37.709Z,16.4
2023-02-14T13:25:37.834Z,16.4
2023-02-14T13:26:38.002Z,16.4
2023-02-14T13:27:38.161Z,16.4
2023-02-14T13:28:38.327Z,16.4
2023-02-14T13:29:38.475Z,17.1
2023-02-14T13:30:39.147Z,17.1
2023-02-14T13:31:39.749Z,17.1
2023-02-14T13:32:40.152Z,17.1
2023-02-14T13:33:40.295Z,17.1
2023-02-14T13:34:40.434Z,17.1
2023-02-14T13:35:40.591Z,17.1
2023-02-14T13:36:40.750Z,17.1
2023-02-14T13:37:40.882Z,17.1
2023-02-14T13:38:41.023Z,17.1
2023-02-14T13:39:43.552Z,17.1
2023-02-14T13:40:43.771Z,17.1
2023-02-14T13:41:43.914Z,17.1
2023-02-14T13:42:44.055Z,17.1
2023-02-14T13:43:44.182Z,17.1
2023-02-14T13:44:44.315Z,17.1
2023-02-14T13:45:44.459Z,17.1
2023-02-14T13:46:44.688Z,17.1
2023-02-14T13:47:44.989Z,17.1
2023-02-14T13:48:45.128Z,17.1
2023-02-14T13:49:45.257Z,17.5
2023-02-14T13:50:45.383Z,17.5
2023-02-14T13:51:45.530Z,17.5
2023-02-14T13:52:45.725Z,17.5